Outage due to equipment failure. Site will not be transmitting information for the foreseeable future.

Latest Weather Observations for Rundle Island

IDQ60801

Issued at 9:35 pm EST Friday 28 November 2014 (issued every 30 minutes, with the page automatically refreshed every 10 minutes)

About weather observations | Map of weather stations | Latest weather observations for QLD | Other Formats
Station Details ID: 039322 Name: RUNDLE ISLAND Lat: -23.53 Lon: 151.28 Height: 19.8 m
Data from the previous 72 hours. | See also: Recent months at Rundle Island
Date/Time
EST
Temp
°C
App
Temp
°C
Dew
Point
Rel
Hum
%
Delta-T
°C
Wind Press
QNH
hPa
Press
MSL
hPa
Rain
since 9 am
mm
Dir
 
Spd
km/h
Gust
km/h
Spd
kts
Gust
kts
28/09:30pm 25.2 - - - - E 37 43 20 23 1015.7 1015.6 -
28/09:00pm 25.2 - - - - E 39 43 21 23 1015.5 1015.4 -
28/08:30pm 25.2 - - - - ESE 41 46 22 25 1015.5 1015.4 -
28/08:00pm 25.3 - - - - ESE 39 44 21 24 1015.3 1015.2 -
28/07:30pm 25.2 - - - - ESE 41 48 22 26 1014.8 1014.7 -
28/07:00pm 25.1 - - - - ESE 41 48 22 26 1014.6 1014.5 -
28/06:30pm 25.3 - - - - ESE 41 48 22 26 1014.3 1014.2 -
28/06:00pm 25.3 - - - - ESE 39 44 21 24 1014.3 1014.2 -
28/05:30pm 25.5 - - - - ESE 37 44 20 24 1014.1 1014.0 -
28/05:00pm 25.4 - - - - ESE 37 43 20 23 1014.1 1014.0 -
28/04:30pm 25.7 - - - - ESE 37 43 20 23 1013.9 1013.8 -
28/04:00pm 25.6 - - - - ESE 37 43 20 23 1013.9 1013.8 -
28/03:30pm 25.8 - - - - ESE 37 43 20 23 1013.9 1013.8 -
28/03:00pm 25.7 - - - - ESE 35 41 19 22 1014.0 1013.9 -
28/02:30pm 26.0 - - - - ESE 33 39 18 21 1014.2 1014.1 -
28/02:00pm 25.7 - - - - ESE 32 35 17 19 1014.4 1014.3 -
28/01:30pm 26.0 - - - - ESE 30 33 16 18 1014.6 1014.5 -
28/01:00pm 26.5 - - - - ESE 30 35 16 19 1014.6 1014.5 -
28/12:30pm 25.8 - - - - ESE 30 33 16 18 1015.0 1014.9 -
28/12:00pm 26.2 - - - - ESE 30 33 16 18 1015.4 1015.3 -
28/11:30am 26.2 - - - - ESE 30 33 16 18 1015.5 1015.4 -
28/11:00am 26.4 - - - - ESE 30 35 16 19 1015.7 1015.6 -
28/10:30am 26.0 - - - - ESE 28 35 15 19 1015.7 1015.6 -
28/10:00am 26.6 - - - - ESE 28 32 15 17 1015.9 1015.8 -
28/09:30am 25.8 - - - - ESE 28 32 15 17 1015.9 1015.8 -
28/09:00am 26.5 - - - - ESE 28 32 15 17 1016.0 1015.9 -
28/08:30am 25.6 - - - - SE 24 30 13 16 1016.0 1015.9 -
28/08:00am 25.9 - - - - ESE 26 30 14 16 1016.0 1015.9 -
28/07:30am 25.6 - - - - ESE 26 30 14 16 1015.7 1015.6 -
28/07:00am 26.0 - - - - ESE 30 33 16 18 1015.4 1015.3 -
28/06:30am 25.8 - - - - ESE 28 33 15 18 1015.1 1015.0 -
28/06:00am 25.4 - - - - ESE 28 32 15 17 1014.7 1014.6 -
28/05:30am 25.1 - - - - ESE 32 35 17 19 1014.4 1014.3 -
28/05:00am 24.9 - - - - ESE 32 35 17 19 1014.0 1013.9 -
28/04:30am 25.0 - - - - E 26 30 14 16 1013.7 1013.6 -
28/04:00am 25.0 - - - - ESE 30 33 16 18 1013.3 1013.1 -
28/03:30am 24.9 - - - - E 30 33 16 18 1013.1 1012.9 -
28/03:00am 25.1 - - - - ESE 30 33 16 18 1013.2 1013.0 -
28/02:30am 25.2 - - - - ESE 28 32 15 17 1013.4 1013.2 -
28/02:00am 25.2 - - - - ESE 26 30 14 16 1013.6 1013.5 -
28/01:30am 25.1 - - - - ESE 28 33 15 18 1013.9 1013.8 -
28/01:00am 25.3 - - - - ESE 28 32 15 17 1014.0 1013.9 -
28/12:30am 25.2 - - - - E 24 30 13 16 1014.0 1013.9 -
28/12:00am 25.3 - - - - ESE 24 30 13 16 1014.0 1013.9 -
 
Date/Time
EST
Temp
°C
App
Temp
°C
Dew
Point
Rel
Hum
%
Delta-T
°C
Wind Press
QNH
hPa
Press
MSL
hPa
Rain
since 9 am
mm
Dir
 
Spd
km/h
Gust
km/h
Spd
kts
Gust
kts
27/11:30pm 25.4 - - - - ESE 24 28 13 15 1014.4 1014.3 -
27/11:00pm 25.4 - - - - ESE 22 26 12 14 1014.7 1014.6 -
27/10:30pm 25.4 - - - - E 20 24 11 13 1014.7 1014.6 -
27/10:00pm 25.4 - - - - E 20 26 11 14 1014.7 1014.6 -
27/09:30pm 25.3 - - - - E 19 22 10 12 1014.7 1014.6 -
27/09:00pm 25.3 - - - - E 19 24 10 13 1014.5 1014.4 -
27/08:30pm 25.4 - - - - E 17 20 9 11 1014.1 1014.0 -
27/08:00pm 25.3 - - - - ENE 17 19 9 10 1013.8 1013.7 -
27/07:30pm 25.5 - - - - ENE 17 19 9 10 1013.7 1013.6 -
27/07:00pm 25.5 - - - - ENE 15 19 8 10 1013.5 1013.3 -
27/06:30pm 25.6 - - - - ENE 20 24 11 13 1013.3 1013.1 -
27/06:00pm 25.9 - - - - ENE 20 24 11 13 1013.1 1012.9 -
27/05:30pm 25.7 - - - - ENE 26 30 14 16 1012.7 1012.5 -
27/05:00pm 25.7 - - - - E 24 26 13 14 1012.6 1012.4 -
27/04:30pm 26.0 - - - - E 19 22 10 12 1012.6 1012.4 -
27/04:00pm 26.4 - - - - ENE 19 22 10 12 1012.5 1012.3 -
27/03:30pm 26.5 - - - - ENE 19 22 10 12 1012.5 1012.3 -
27/03:00pm 26.5 - - - - E 19 22 10 12 1012.6 1012.4 -
27/02:30pm 26.7 - - - - ENE 19 20 10 11 1012.8 1012.6 -
27/02:00pm 26.6 - - - - E 19 22 10 12 1013.0 1012.8 -
27/01:30pm 26.8 - - - - ENE 19 22 10 12 1013.1 1012.9 -
27/01:00pm 26.9 - - - - E 17 20 9 11 1013.4 1013.2 -
27/12:30pm 27.1 - - - - E 15 17 8 9 1014.0 1013.9 -
27/12:00pm 27.2 - - - - E 13 15 7 8 1014.4 1014.3 -
27/11:30am 27.1 - - - - E 13 17 7 9 1014.6 1014.5 -
27/11:00am 27.9 - - - - ENE 11 15 6 8 1015.0 1014.9 -
27/10:30am 27.7 - - - - E 13 17 7 9 1015.3 1015.2 -
27/10:00am 26.9 - - - - E 13 17 7 9 1015.5 1015.4 -
27/09:30am 27.6 - - - - ENE 13 17 7 9 1015.7 1015.6 -
27/09:00am 26.5 - - - - ENE 11 15 6 8 1015.8 1015.7 -
27/08:30am 27.0 - - - - ENE 11 15 6 8 1015.7 1015.6 -
27/08:00am 27.0 - - - - ENE 13 17 7 9 1015.7 1015.6 -
27/07:30am 26.3 - - - - ENE 15 19 8 10 1015.5 1015.4 -
27/07:00am 25.9 - - - - ENE 19 22 10 12 1015.3 1015.2 -
27/06:30am 25.6 - - - - ENE 24 30 13 16 1014.9 1014.8 -
27/06:00am 25.6 - - - - ENE 22 26 12 14 1014.7 1014.6 -
27/05:30am 25.2 - - - - E 22 26 12 14 1014.3 1014.2 -
27/05:00am 25.1 - - - - E 20 24 11 13 1014.1 1014.0 -
27/04:30am 25.1 - - - - ENE 22 26 12 14 1014.1 1014.0 -
27/04:00am 25.2 - - - - E 24 28 13 15 1014.0 1013.9 -
27/03:30am 25.1 - - - - E 24 28 13 15 1013.7 1013.6 -
27/03:00am 25.1 - - - - E 24 28 13 15 1013.7 1013.6 -
27/02:30am 25.2 - - - - E 24 28 13 15 1013.8 1013.7 -
27/02:00am 25.1 - - - - E 22 30 12 16 1013.9 1013.8 -
27/01:30am 25.4 - - - - E 22 28 12 15 1014.1 1014.0 -
27/01:00am 25.5 - - - - E 24 28 13 15 1014.5 1014.4 -
27/12:30am 25.3 - - - - E 24 28 13 15 1014.6 1014.5 -
27/12:00am 25.3 - - - - E 24 28 13 15 1015.0 1014.9 -
 
Date/Time
EST
Temp
°C
App
Temp
°C
Dew
Point
Rel
Hum
%
Delta-T
°C
Wind Press
QNH
hPa
Press
MSL
hPa
Rain
since 9 am
mm
Dir
 
Spd
km/h
Gust
km/h
Spd
kts
Gust
kts
26/11:30pm 25.4 - - - - E 20 24 11 13 1015.4 1015.3 -
26/11:00pm 25.4 - - - - E 24 28 13 15 1015.5 1015.4 -
26/10:30pm 25.4 - - - - E 26 28 14 15 1015.5 1015.4 -
26/10:00pm 25.4 - - - - E 28 32 15 17 1015.3 1015.2 -
26/09:30pm 25.5 - - - - E 24 28 13 15 1015.8 1015.7 -
26/09:00pm 25.4 - - - - E 22 28 12 15 1015.5 1015.4 -
26/08:30pm 25.5 - - - - E 24 28 13 15 1015.2 1015.1 -
26/08:00pm 25.3 - - - - E 26 30 14 16 1015.0 1014.9 -
26/07:30pm 25.4 - - - - E 26 30 14 16 1014.6 1014.5 -
26/07:00pm 25.6 - - - - E 26 30 14 16 1014.2 1014.1 -
26/06:30pm 25.6 - - - - E 28 32 15 17 1013.8 1013.7 -
26/06:00pm 25.7 - - - - E 24 30 13 16 1013.7 1013.6 -
26/05:30pm 26.0 - - - - E 22 26 12 14 1013.7 1013.6 -
26/05:00pm 26.3 - - - - E 24 28 13 15 1013.6 1013.5 -
26/04:30pm 26.2 - - - - E 22 26 12 14 1013.5 1013.3 -
26/04:00pm 26.4 - - - - E 22 26 12 14 1013.4 1013.2 -
26/03:30pm 26.4 - - - - ENE 22 26 12 14 1013.4 1013.2 -
26/03:00pm 26.7 - - - - ENE 24 26 13 14 1013.3 1013.1 -
26/02:30pm 26.8 - - - - ENE 20 24 11 13 1013.7 1013.6 -
26/02:00pm 27.0 - - - - E 19 22 10 12 1014.0 1013.9 -
26/01:30pm 27.4 - - - - E 15 19 8 10 1014.3 1014.2 -
26/01:00pm 27.1 - - - - E 15 19 8 10 1014.5 1014.4 -
26/12:30pm 27.2 - - - - E 17 19 9 10 1014.7 1014.6 -
26/12:00pm 27.0 - - - - E 19 22 10 12 1014.9 1014.8 -
26/11:30am 26.9 - - - - E 22 26 12 14 1015.2 1015.1 -
26/11:00am 27.0 - - - - ENE 20 24 11 13 1015.4 1015.3 -
26/10:30am 26.8 - - - - E 24 26 13 14 1015.5 1015.4 -
26/10:00am 27.0 - - - - E 22 26 12 14 1015.8 1015.7 -
26/09:30am 27.0 - - - - ENE 20 24 11 13 1015.9 1015.8 -
26/09:00am 26.9 - - - - E 22 24 12 13 1015.8 1015.7 -
26/08:30am 26.8 - - - - E 20 24 11 13 1015.9 1015.8 -
26/08:00am 26.7 - - - - E 20 24 11 13 1015.8 1015.7 -
26/07:30am 26.8 - - - - E 22 24 12 13 1015.6 1015.5 -
26/07:00am 26.1 - - - - ENE 24 28 13 15 1015.2 1015.1 -
26/06:30am 25.6 - - - - E 24 28 13 15 1015.1 1015.0 -
26/06:00am 25.4 - - - - E 20 26 11 14 1014.6 1014.5 -
26/05:30am 25.3 - - - - E 20 26 11 14 1014.3 1014.2 -
26/05:00am 25.1 - - - - E 20 26 11 14 1014.0 1013.9 -
26/04:30am 25.0 - - - - E 20 24 11 13 1013.8 1013.7 -
26/04:00am 25.2 - - - - E 19 22 10 12 1013.9 1013.8 -
26/03:30am 25.2 - - - - E 15 19 8 10 1013.9 1013.8 -
26/03:00am 25.1 - - - - E 13 15 7 8 1013.6 1013.5 -
26/02:30am 25.1 - - - - NE 11 13 6 7 1013.2 1013.0 -
26/02:00am 25.2 - - - - NNE 13 17 7 9 1013.1 1012.9 -
26/01:30am 25.2 - - - - N 19 20 10 11 1012.8 1012.6 -
26/01:00am 25.3 - - - - N 24 26 13 14 1012.8 1012.6 -
26/12:30am 25.4 - - - - N 26 30 14 16 1012.8 1012.6 -
26/12:00am 25.5 - - - - NNE 20 24 11 13 1013.7 1013.6 -
 
Date/Time
EST
Temp
°C
App
Temp
°C
Dew
Point
Rel
Hum
%
Delta-T
°C
Wind Press
QNH
hPa
Press
MSL
hPa
Rain
since 9 am
mm
Dir
 
Spd
km/h
Gust
km/h
Spd
kts
Gust
kts
25/11:30pm 25.5 - - - - NNE 19 22 10 12 1014.4 1014.3 -
25/11:00pm 25.6 - - - - NNE 22 24 12 13 1014.6 1014.5 -
25/10:30pm 25.7 - - - - NNE 20 24 11 13 1014.9 1014.8 -
25/10:00pm 25.6 - - - - NE 19 22 10 12 1015.0 1014.9 -

Other Formats:

Comma delimited format used in spreadsheet applications
http://www.bom.gov.au/fwo/IDQ60801/IDQ60801.94378.axf

JavaScript Object Notation format (JSON) in row-major order
http://www.bom.gov.au/fwo/IDQ60801/IDQ60801.94378.json